Time;durP1;ratioP1;P1;durP2;ratioP2;P2;SDS_P1;SDS_P2;PMS_P1;PMS_P2;Temp;Humidity;BMP_temperature;BMP_pressure;BME280_temperature;BME280_humidity;BME280_pressure;Samples;Min_cycle;Max_cycle;Signal;HPM_P1;HPM_P2
2021/07/15 00:00:09;;;;;;;56.47;36.60;;;;;;;19.17;100.00;101198.59;3598323;39;20024;-64
2021/07/15 00:02:35;;;;;;;;;;;;;;;19.18;100.00;101206.59;3600239;39;20044;-65
2021/07/15 00:05:04;;;;;;;57.28;35.53;;;;;;;19.12;100.00;101198.31;3599069;39;19936;-63
2021/07/15 00:07:41;;;;;;;56.35;33.20;;;;;;;19.12;100.00;101199.16;3598742;39;20040;-64
2021/07/15 00:10:15;;;;;;;58.58;34.88;;;;;;;19.17;100.00;101210.38;3599542;39;20048;-64
2021/07/15 00:12:44;;;;;;;64.22;34.33;;;;;;;19.09;100.00;101202.25;3599299;39;20036;-63
2021/07/15 00:15:12;;;;;;;54.65;34.08;;;;;;;19.10;100.00;101198.50;3600067;39;20047;-63
2021/07/15 00:17:38;;;;;;;53.47;32.00;;;;;;;19.03;100.00;101200.25;3600059;39;20040;-63
2021/07/15 00:20:09;;;;;;;53.30;32.83;;;;;;;18.99;100.00;101201.66;3598820;39;20040;-63
2021/07/15 00:22:35;;;;;;;56.08;32.90;;;;;;;19.01;100.00;101205.06;3597737;39;20047;-63
2021/07/15 00:25:06;;;;;;;58.55;32.40;;;;;;;18.98;100.00;101210.88;3600578;39;20035;-62
2021/07/15 00:27:32;;;;;;;56.85;31.30;;;;;;;18.93;100.00;101208.69;3597766;39;20054;-63
2021/07/15 00:29:58;;;;;;;57.47;31.45;;;;;;;19.02;100.00;101202.16;3599056;39;20133;-65
2021/07/15 00:32:25;;;;;;;46.42;28.95;;;;;;;19.02;100.00;101202.16;3602278;39;20368;-63
2021/07/15 00:34:51;;;;;;;50.47;30.83;;;;;;;18.97;100.00;101203.72;3604733;39;20398;-65
2021/07/15 00:37:18;;;;;;;52.67;31.30;;;;;;;19.03;100.00;101209.28;3605367;39;20062;-63
2021/07/15 00:39:44;;;;;;;49.67;30.20;;;;;;;19.00;100.00;101217.84;3604864;39;20035;-63
2021/07/15 00:42:12;;;;;;;49.53;28.45;;;;;;;19.00;100.00;101211.53;3603420;39;20274;-63
2021/07/15 00:44:39;;;;;;;44.97;31.38;;;;;;;18.97;100.00;101220.94;3603125;39;20125;-63
2021/07/15 00:47:05;;;;;;;50.10;29.75;;;;;;;18.94;100.00;101213.13;3602663;39;20051;-63
2021/07/15 00:49:32;;;;;;;50.08;29.98;;;;;;;18.92;100.00;101226.09;3602015;39;20048;-63
2021/07/15 00:51:58;;;;;;;45.00;28.48;;;;;;;18.83;100.00;101217.09;3603342;39;20378;-63
2021/07/15 00:54:25;;;;;;;51.58;29.80;;;;;;;18.80;100.00;101212.00;3598352;39;20051;-64
2021/07/15 00:56:51;;;;;;;50.42;30.17;;;;;;;18.80;100.00;101214.75;3600349;39;20089;-63
2021/07/15 00:59:21;;;;;;;49.00;29.90;;;;;;;18.77;100.00;101227.88;3602417;39;20026;-63
2021/07/15 01:01:47;;;;;;;51.47;29.92;;;;;;;18.72;100.00;101210.16;3605310;39;20106;-63
2021/07/15 01:04:14;;;;;;;54.45;30.40;;;;;;;18.77;100.00;101219.69;3604352;39;20051;-62
2021/07/15 01:06:41;;;;;;;42.97;27.70;;;;;;;18.79;100.00;101204.84;3604947;39;20040;-63
2021/07/15 01:09:07;;;;;;;44.63;29.05;;;;;;;18.79;100.00;101209.47;3603899;39;20040;-63
2021/07/15 01:11:39;;;;;;;44.78;28.77;;;;;;;18.80;100.00;101212.00;3603295;39;20034;-63
2021/07/15 01:14:10;;;;;;;47.65;30.75;;;;;;;18.74;100.00;101204.53;3603296;39;20101;-63
2021/07/15 01:16:45;;;;;;;52.33;32.15;;;;;;;18.71;100.00;101210.34;3601877;39;20046;-65
2021/07/15 01:19:39;;;;;;;45.22;30.40;;;;;;;18.71;100.00;101219.41;3597521;39;20054;-64
2021/07/15 01:22:10;;;;;;;51.60;32.70;;;;;;;18.72;100.00;101223.81;3597585;39;20039;-65
2021/07/15 01:25:01;;;;;;;50.58;32.22;;;;;;;18.75;100.00;101217.16;3604616;39;20050;-62
2021/07/15 01:28:00;;;;;;;48.80;32.22;;;;;;;18.80;100.00;101212.00;3604937;39;20035;-63
2021/07/15 01:30:32;;;;;;;51.75;30.48;;;;;;;18.77;100.00;101222.41;3597977;39;20050;-64
2021/07/15 01:33:22;;;;;;;47.25;30.45;;;;;;;18.78;100.00;101222.22;3605573;39;20039;-64
2021/07/15 01:35:52;;;;;;;51.17;31.55;;;;;;;18.72;100.00;101222.97;3603247;39;20036;-63
2021/07/15 01:38:23;;;;;;;49.13;31.60;;;;;;;18.72;100.00;101212.06;3603605;39;20046;-65
2021/07/15 01:40:55;;;;;;;43.75;27.35;;;;;;;18.72;100.00;101212.91;3601356;39;20422;-63
2021/07/15 01:43:27;;;;;;;58.28;29.80;;;;;;;18.80;100.00;101220.19;3603156;39;20059;-63
2021/07/15 01:45:56;;;;;;;52.17;29.55;;;;;;;18.77;100.00;101212.38;3601657;39;20059;-64
2021/07/15 01:48:23;;;;;;;45.92;29.73;;;;;;;18.71;100.00;101215.81;3602911;39;20070;-62
2021/07/15 01:50:50;;;;;;;47.65;31.27;;;;;;;18.67;100.00;101218.06;3600901;39;20032;-64
2021/07/15 01:53:16;;;;;;;48.60;29.38;;;;;;;18.61;100.00;101215.19;3602465;39;20117;-63
2021/07/15 01:55:44;;;;;;;51.30;30.88;;;;;;;18.65;100.00;101216.53;3607173;39;20024;-63
2021/07/15 01:58:11;;;;;;;49.53;29.67;;;;;;;18.62;100.00;101206.84;3605573;39;20031;-62
2021/07/15 02:00:39;;;;;;;45.63;30.75;;;;;;;18.55;100.00;101212.19;3604984;39;20081;-62
2021/07/15 02:03:09;;;;;;;48.58;29.60;;;;;;;18.59;100.00;101209.09;3603253;39;20044;-63
2021/07/15 02:05:37;;;;;;;50.33;30.33;;;;;;;18.62;100.00;101211.44;3604369;39;20414;-62
2021/07/15 02:08:05;;;;;;;45.13;28.25;;;;;;;18.70;100.00;101203.22;3604110;39;20383;-63
2021/07/15 02:10:33;;;;;;;52.95;30.48;;;;;;;18.63;100.00;101207.69;3602992;39;20035;-63
2021/07/15 02:13:01;;;;;;;44.50;27.80;;;;;;;18.58;100.00;101205.53;3604753;39;20035;-63
2021/07/15 02:15:29;;;;;;;46.67;28.92;;;;;;;18.64;100.00;101212.09;3605044;39;20028;-63
2021/07/15 02:17:58;;;;;;;49.70;30.80;;;;;;;18.66;100.00;101212.78;3600447;39;20042;-63
2021/07/15 02:20:25;;;;;;;45.38;28.13;;;;;;;18.59;100.00;101211.81;3599789;39;20039;-64
2021/07/15 02:22:53;;;;;;;56.17;29.58;;;;;;;18.53;100.00;101214.22;3599105;39;20048;-65
2021/07/15 02:25:21;;;;;;;46.20;28.65;;;;;;;18.48;100.00;101216.66;3601816;39;20030;-64
2021/07/15 02:27:48;;;;;;;51.50;30.20;;;;;;;18.47;100.00;101214.94;3598596;39;20032;-64
2021/07/15 02:30:17;;;;;;;50.08;30.30;;;;;;;18.45;100.00;101202.53;3601882;39;20051;-63
2021/07/15 02:32:49;;;;;;;46.95;28.45;;;;;;;18.46;100.00;101198.78;3602108;39;20062;-63
2021/07/15 02:35:17;;;;;;;45.88;28.40;;;;;;;18.44;100.00;101198.94;3604583;39;20040;-63
2021/07/15 02:37:49;;;;;;;48.72;28.20;;;;;;;18.42;100.00;101206.47;3604597;39;20030;-62
2021/07/15 02:40:17;;;;;;;42.33;26.10;;;;;;;18.43;100.00;101201.84;3600941;39;20024;-63
2021/07/15 02:42:46;;;;;;;43.22;27.02;;;;;;;18.44;100.00;101196.22;3601984;39;20094;-63
2021/07/15 02:45:14;;;;;;;39.25;24.05;;;;;;;18.41;100.00;101207.50;3601446;39;20064;-63
2021/07/15 02:47:42;;;;;;;44.60;26.15;;;;;;;18.42;100.00;101198.28;3601035;39;20048;-62
2021/07/15 02:50:10;;;;;;;40.78;24.63;;;;;;;18.47;100.00;101204.03;3600856;39;20029;-63
2021/07/15 02:52:37;;;;;;;40.63;24.88;;;;;;;18.47;100.00;101205.94;3601732;39;20044;-63
2021/07/15 02:55:07;;;;;;;41.20;24.00;;;;;;;18.44;100.00;101198.09;3602370;39;20042;-62
2021/07/15 02:57:41;;;;;;;39.40;24.50;;;;;;;18.43;100.00;101199.97;3603943;39;20043;-62
2021/07/15 03:00:09;;;;;;;38.05;23.88;;;;;;;18.40;100.00;101200.31;3602521;39;20034;-63
2021/07/15 03:02:44;;;;;;;37.92;23.38;;;;;;;18.43;100.00;101199.97;3604658;39;20038;-63
2021/07/15 03:05:13;;;;;;;38.90;23.73;;;;;;;18.37;100.00;101201.56;3601356;39;20032;-63
2021/07/15 03:07:46;;;;;;;36.92;24.05;;;;;;;18.39;100.00;101193.19;3604419;39;20055;-64
2021/07/15 03:10:16;;;;;;;40.35;25.30;;;;;;;18.43;100.00;101194.50;3603494;39;20048;-63
2021/07/15 03:12:44;;;;;;;38.88;23.95;;;;;;;18.55;100.00;101197.69;3600884;39;20225;-63
2021/07/15 03:15:12;;;;;;;31.55;24.02;;;;;;;18.55;100.00;101195.81;3603627;39;20275;-63
2021/07/15 03:17:40;;;;;;;41.53;23.23;;;;;;;18.44;100.00;101209.84;3601498;39;20066;-64
2021/07/15 03:20:11;;;;;;;33.30;21.80;;;;;;;18.36;100.00;101213.47;3598980;39;20028;-64
2021/07/15 03:22:39;;;;;;;38.10;23.52;;;;;;;18.38;100.00;101213.28;3596869;39;20044;-63
2021/07/15 03:25:10;;;;;;;33.25;21.52;;;;;;;18.51;100.00;101216.28;3603104;39;20044;-64
2021/07/15 03:27:41;;;;;;;34.53;21.70;;;;;;;18.47;100.00;101214.94;3599845;39;20024;-64
2021/07/15 03:30:09;;;;;;;30.27;19.48;;;;;;;18.53;100.00;101216.94;3602310;39;20034;-64
2021/07/15 03:32:38;;;;;;;29.27;19.48;;;;;;;18.34;100.00;101212.81;3603983;39;20278;-65
2021/07/15 03:35:07;;;;;;;33.50;20.83;;;;;;;18.41;100.00;101210.22;3601056;39;20032;-63
2021/07/15 03:37:35;;;;;;;29.52;19.85;;;;;;;18.50;100.00;101208.28;3600621;39;20056;-64
2021/07/15 03:40:02;;;;;;;40.53;22.08;;;;;;;18.46;100.00;101213.25;3603431;39;20040;-63
2021/07/15 03:42:29;;;;;;;32.92;21.00;;;;;;;18.42;100.00;101216.50;3603787;39;20325;-65
2021/07/15 03:44:57;;;;;;;32.20;20.02;;;;;;;18.47;100.00;101214.94;3602432;39;20032;-63
2021/07/15 03:47:25;;;;;;;33.60;19.83;;;;;;;18.45;100.00;101219.72;3600763;39;20383;-64
2021/07/15 03:49:53;;;;;;;36.10;20.42;;;;;;;18.53;100.00;101216.94;3597768;39;20129;-63
2021/07/15 03:52:20;;;;;;;31.67;21.08;;;;;;;18.57;100.00;101220.16;3599740;39;20032;-63
2021/07/15 03:54:47;;;;;;;31.88;21.20;;;;;;;18.60;100.00;101221.69;3599059;39;20036;-62
2021/07/15 03:57:18;;;;;;;34.67;19.98;;;;;;;18.44;100.00;101226.19;3602955;39;20043;-64
2021/07/15 03:59:47;;;;;;;34.05;20.60;;;;;;;18.47;100.00;101225.00;3602008;39;20043;-63
2021/07/15 04:02:18;;;;;;;36.70;20.98;;;;;;;18.43;100.00;101232.66;3601479;39;20072;-62
2021/07/15 04:04:49;;;;;;;34.83;21.02;;;;;;;18.44;100.00;101245.28;3601303;39;20034;-63
2021/07/15 04:07:18;;;;;;;34.88;20.65;;;;;;;18.48;100.00;101246.63;3601917;39;20038;-62
2021/07/15 04:09:46;;;;;;;36.40;21.48;;;;;;;18.45;100.00;101238.81;3602246;39;20035;-63
2021/07/15 04:12:13;;;;;;;36.97;20.92;;;;;;;18.37;100.00;101250.63;3600870;39;20040;-63
2021/07/15 04:17:37;;;;;;;23.17;15.48;;;;;;;18.35;100.00;101244.47;3633030;22;20416;-62
2021/07/15 04:20:05;;;;;;;23.13;15.32;;;;;;;18.37;100.00;101247.00;3604212;39;20052;-62
2021/07/15 04:22:33;;;;;;;22.48;14.90;;;;;;;18.33;100.00;101245.66;3600417;39;20035;-62
2021/07/15 04:25:01;;;;;;;24.38;16.33;;;;;;;18.40;100.00;101252.09;3599506;39;20030;-62
2021/07/15 04:27:28;;;;;;;21.37;14.47;;;;;;;18.37;100.00;101258.78;3597854;39;20048;-62
2021/07/15 04:30:00;;;;;;;28.45;16.52;;;;;;;18.32;100.00;101261.19;3600088;39;20049;-63
2021/07/15 04:32:29;;;;;;;25.02;16.42;;;;;;;18.36;100.00;101264.41;3604154;39;20063;-61
2021/07/15 04:34:59;;;;;;;30.95;17.85;;;;;;;18.33;100.00;101267.47;3601908;39;20412;-62
2021/07/15 04:37:27;;;;;;;30.15;19.20;;;;;;;18.32;100.00;101266.63;3604442;39;20044;-62
2021/07/15 04:39:54;;;;;;;35.47;20.70;;;;;;;18.27;100.00;101279.09;3604383;39;20379;-62
2021/07/15 04:42:23;;;;;;;40.47;22.25;;;;;;;18.30;100.00;101273.28;3603576;39;20048;-61
2021/07/15 04:44:51;;;;;;;39.30;22.77;;;;;;;18.29;100.00;101268.88;3603402;39;20340;-61
2021/07/15 04:47:21;;;;;;;36.88;23.50;;;;;;;18.29;100.00;101271.59;3606054;39;20035;-63
2021/07/15 04:49:48;;;;;;;39.20;22.80;;;;;;;18.28;100.00;101269.88;3602188;39;20036;-63
2021/07/15 04:52:18;;;;;;;42.60;23.77;;;;;;;18.32;100.00;101284.88;3602215;39;20285;-62
2021/07/15 04:54:46;;;;;;;46.63;24.27;;;;;;;18.27;100.00;101279.09;3605506;39;20401;-63
2021/07/15 04:57:14;;;;;;;44.90;24.83;;;;;;;18.33;100.00;101271.06;3601981;39;20031;-64
2021/07/15 04:59:41;;;;;;;46.63;25.57;;;;;;;18.31;100.00;101280.44;3604121;39;20107;-62
2021/07/15 05:02:08;;;;;;;43.50;25.15;;;;;;;18.26;100.00;101282.84;3605107;39;20281;-62
2021/07/15 05:04:35;;;;;;;51.90;26.42;;;;;;;18.32;100.00;101282.16;3603880;39;20279;-62
2021/07/15 05:07:02;;;;;;;54.25;26.83;;;;;;;18.31;100.00;101281.28;3602573;39;20398;-62
2021/07/15 05:09:30;;;;;;;40.22;24.08;;;;;;;18.23;100.00;101285.91;3603635;39;20032;-64
2021/07/15 05:11:56;;;;;;;42.25;24.67;;;;;;;18.29;100.00;101285.22;3605819;39;20032;-63
2021/07/15 05:14:23;;;;;;;47.97;24.40;;;;;;;18.32;100.00;101288.44;3603151;39;20048;-62
2021/07/15 05:16:49;;;;;;;53.15;26.50;;;;;;;18.27;100.00;101279.09;3605204;39;20058;-62
2021/07/15 05:19:16;;;;;;;46.33;25.92;;;;;;;18.21;100.00;101286.94;3603141;39;20074;-62
2021/07/15 05:21:42;;;;;;;42.58;25.38;;;;;;;18.24;100.00;101279.44;3602068;39;20080;-63
2021/07/15 05:24:09;;;;;;;48.90;27.42;;;;;;;18.23;100.00;101288.63;3600489;39;20038;-62
2021/07/15 05:26:37;;;;;;;44.58;24.05;;;;;;;18.16;100.00;101283.88;3597906;39;20400;-62
2021/07/15 05:29:03;;;;;;;47.83;24.95;;;;;;;18.24;100.00;101295.78;3603420;39;20347;-62
2021/07/15 05:31:30;;;;;;;42.63;24.15;;;;;;;18.19;100.00;101301.75;3603756;39;20143;-61
2021/07/15 05:33:56;;;;;;;49.53;25.33;;;;;;;18.20;100.00;101304.31;3604178;39;20038;-61
2021/07/15 05:36:23;;;;;;;46.90;24.92;;;;;;;18.19;100.00;101308.06;3602801;39;20050;-63
2021/07/15 05:38:49;;;;;;;42.38;25.38;;;;;;;18.09;100.00;101304.69;3606834;39;20048;-62
2021/07/15 05:41:16;;;;;;;44.42;25.23;;;;;;;18.07;100.00;101304.03;3602794;39;20039;-63
2021/07/15 05:43:43;;;;;;;42.47;23.98;;;;;;;18.09;100.00;101310.13;3602641;39;20039;-62
2021/07/15 05:46:10;;;;;;;52.20;24.92;;;;;;;18.09;100.00;101306.56;3603377;39;20043;-63
2021/07/15 05:48:36;;;;;;;42.88;23.30;;;;;;;18.02;100.00;101303.69;3602216;39;20417;-64
2021/07/15 05:51:03;;;;;;;39.03;23.27;;;;;;;18.03;100.00;101308.97;3601211;39;20056;-63
2021/07/15 05:53:29;;;;;;;47.17;23.73;;;;;;;18.06;100.00;101313.22;3600358;39;20040;-63
2021/07/15 05:55:56;;;;;;;45.60;23.05;;;;;;;18.02;100.00;101315.44;3599669;39;20040;-63
2021/07/15 05:58:22;;;;;;;43.78;24.15;;;;;;;18.07;100.00;101311.34;3606331;39;20079;-63
2021/07/15 06:00:50;;;;;;;46.38;23.83;;;;;;;18.06;100.00;101320.53;3605749;39;20047;-62
2021/07/15 06:03:16;;;;;;;44.05;23.55;;;;;;;18.02;100.00;101320.03;3603756;39;20032;-63
2021/07/15 06:05:43;;;;;;;42.70;23.25;;;;;;;17.95;100.00;101313.59;3602597;39;20301;-63
2021/07/15 06:08:09;;;;;;;44.40;22.00;;;;;;;17.88;100.00;101318.00;3602190;39;20289;-63
2021/07/15 06:10:36;;;;;;;48.72;23.65;;;;;;;17.88;100.00;101327.00;3603950;39;20306;-61
2021/07/15 06:13:02;;;;;;;44.65;22.63;;;;;;;17.84;100.00;101322.91;3604209;39;20055;-63
2021/07/15 06:15:29;;;;;;;54.35;24.20;;;;;;;17.81;100.00;101326.00;3605048;39;20025;-62
2021/07/15 06:17:56;;;;;;;46.15;23.55;;;;;;;17.82;100.00;101334.00;3602284;39;20036;-61
2021/07/15 06:20:23;;;;;;;44.53;22.52;;;;;;;17.81;100.00;101335.00;3603858;39;20076;-62
2021/07/15 06:22:50;;;;;;;48.63;22.90;;;;;;;17.86;100.00;101335.34;3590071;39;20054;-63
2021/07/15 06:25:17;;;;;;;45.22;21.55;;;;;;;17.82;100.00;101344.88;3602413;39;20027;-61
2021/07/15 06:27:44;;;;;;;49.85;23.65;;;;;;;17.89;100.00;101330.56;3601211;39;20056;-63
2021/07/15 06:30:12;;;;;;;43.13;22.60;;;;;;;17.88;100.00;101339.78;3600254;39;20051;-62
2021/07/15 06:32:39;;;;;;;46.47;23.13;;;;;;;17.80;100.00;101346.94;3602817;39;20281;-63
2021/07/15 06:35:08;;;;;;;44.60;22.00;;;;;;;17.77;100.00;101352.72;3600654;39;20410;-63
2021/07/15 06:37:37;;;;;;;44.13;22.52;;;;;;;17.80;100.00;101357.81;3598161;39;20035;-62
2021/07/15 06:40:05;;;;;;;40.78;21.38;;;;;;;17.83;100.00;101354.75;3605279;39;20036;-63
2021/07/15 06:42:32;;;;;;;49.13;22.83;;;;;;;17.80;100.00;101356.97;3603827;39;20080;-63
2021/07/15 06:44:59;;;;;;;56.92;24.35;;;;;;;17.82;100.00;101358.50;3603481;39;20266;-61
2021/07/15 06:47:25;;;;;;;47.33;22.27;;;;;;;17.79;100.00;101353.41;3601895;39;20049;-62
2021/07/15 06:49:52;;;;;;;41.88;22.42;;;;;;;17.84;100.00;101374.66;3601772;39;20048;-62
2021/07/15 06:52:20;;;;;;;46.72;23.02;;;;;;;17.77;100.00;101363.63;3600944;39;20039;-62
2021/07/15 06:54:46;;;;;;;43.42;22.10;;;;;;;17.68;100.00;101367.34;3598886;39;20036;-61
2021/07/15 06:57:12;;;;;;;47.83;23.35;;;;;;;17.67;100.00;101355.63;3600698;39;20037;-61
2021/07/15 06:59:39;;;;;;;39.88;21.00;;;;;;;17.70;100.00;101365.31;3601883;39;20365;-60
2021/07/15 07:02:07;;;;;;;43.47;20.48;;;;;;;17.74;100.00;101366.69;3599314;39;20031;-62
2021/07/15 07:04:34;;;;;;;48.08;21.80;;;;;;;17.73;100.00;101380.47;3602831;39;20032;-60
2021/07/15 07:07:01;;;;;;;40.92;20.55;;;;;;;17.69;100.00;101390.84;3601134;39;20043;-60
2021/07/15 07:09:28;;;;;;;44.70;21.05;;;;;;;17.72;100.00;101389.66;3604950;39;20048;-61
2021/07/15 07:11:55;;;;;;;41.35;19.55;;;;;;;17.68;100.00;101389.13;3604064;39;20406;-61
2021/07/15 07:17:27;;;;;;;43.15;19.98;;;;;;;17.80;100.00;101376.88;3591144;22;20479;-62
2021/07/15 07:19:53;;;;;;;44.95;19.00;;;;;;;17.91;100.00;101385.75;3601390;39;20036;-62
2021/07/15 07:22:20;;;;;;;36.75;19.77;;;;;;;17.82;100.00;101383.00;3597969;39;20044;-62
2021/07/15 07:24:47;;;;;;;38.03;20.13;;;;;;;17.76;100.00;101397.31;3603226;39;20047;-63
2021/07/15 07:27:14;;;;;;;38.78;18.85;;;;;;;17.69;100.00;101396.28;3598393;39;20044;-62
2021/07/15 07:29:40;;;;;;;39.22;20.02;;;;;;;17.72;100.00;101406.00;3602540;39;20032;-62
2021/07/15 07:32:07;;;;;;;46.08;20.38;;;;;;;17.75;100.00;101409.19;3599842;39;20028;-62
2021/07/15 07:34:35;;;;;;;39.03;19.02;;;;;;;17.73;100.00;101424.03;3600645;39;20042;-62
2021/07/15 07:37:01;;;;;;;37.72;19.38;;;;;;;17.76;100.00;101418.25;3602852;39;20424;-61
2021/07/15 07:39:27;;;;;;;35.78;19.25;;;;;;;17.72;100.00;101423.16;3600363;39;20035;-62
2021/07/15 07:41:55;;;;;;;38.00;18.25;;;;;;;17.70;100.00;101417.03;3602472;39;20383;-61
2021/07/15 07:44:22;;;;;;;33.90;18.75;;;;;;;17.61;100.00;101418.91;3604245;39;20075;-60
2021/07/15 07:46:49;;;;;;;39.53;19.98;;;;;;;17.65;100.00;101423.00;3603537;39;20064;-61
2021/07/15 07:49:15;;;;;;;43.97;20.65;;;;;;;17.61;100.00;101423.50;3602543;39;20380;-62
2021/07/15 07:51:42;;;;;;;34.15;18.98;;;;;;;17.63;100.00;101430.47;3599340;39;20047;-62
2021/07/15 07:54:08;;;;;;;36.83;18.88;;;;;;;17.66;100.00;101434.72;3598988;39;20042;-62
2021/07/15 07:56:35;;;;;;;38.40;18.08;;;;;;;17.69;100.00;101428.94;3602873;39;20404;-62
2021/07/15 07:59:03;;;;;;;36.10;18.40;;;;;;;17.78;100.00;101433.38;3602742;39;20079;-62
2021/07/15 08:01:30;;;;;;;44.78;19.02;;;;;;;17.81;100.00;101433.03;3601649;39;20055;-61
2021/07/15 08:03:57;;;;;;;30.95;16.88;;;;;;;17.73;100.00;101435.75;3604550;39;20039;-61
2021/07/15 08:06:23;;;;;;;36.88;18.20;;;;;;;17.66;100.00;101432.00;3604259;39;20070;-61
2021/07/15 08:08:53;;;;;;;32.92;18.88;;;;;;;17.68;100.00;101440.84;3603192;39;20039;-62
2021/07/15 08:11:20;;;;;;;38.28;18.77;;;;;;;17.59;100.00;101439.16;3603677;39;20034;-62
2021/07/15 08:13:47;;;;;;;32.85;18.30;;;;;;;17.51;100.00;101432.66;3603833;39;20071;-60
2021/07/15 08:16:15;;;;;;;40.90;19.15;;;;;;;17.54;100.00;101433.38;3601325;39;20054;-61
2021/07/15 08:18:41;;;;;;;41.80;19.45;;;;;;;17.51;100.00;101435.38;3601871;39;20051;-62
2021/07/15 08:21:07;;;;;;;33.13;19.15;;;;;;;17.51;100.00;101438.09;3603256;39;20043;-63
2021/07/15 08:23:34;;;;;;;37.40;18.17;;;;;;;17.51;100.00;101448.16;3603438;39;20044;-62
2021/07/15 08:26:00;;;;;;;36.10;18.58;;;;;;;17.55;100.00;101445.94;3601916;39;20028;-63
2021/07/15 08:28:27;;;;;;;40.03;18.40;;;;;;;17.54;100.00;101452.41;3603990;39;20047;-62
2021/07/15 08:30:53;;;;;;;30.92;17.90;;;;;;;17.51;100.00;101450.88;3603265;39;20032;-62
2021/07/15 08:33:21;;;;;;;32.83;18.20;;;;;;;17.52;100.00;101464.31;3601550;39;20270;-61
2021/07/15 08:35:47;;;;;;;33.47;18.17;;;;;;;17.45;100.00;101466.00;3589213;39;20040;-62
2021/07/15 08:38:16;;;;;;;37.17;18.13;;;;;;;17.54;100.00;101458.69;3600745;39;20441;-62
2021/07/15 08:40:44;;;;;;;37.03;18.00;;;;;;;17.47;100.00;101469.38;3601449;39;20035;-61
2021/07/15 08:43:11;;;;;;;38.03;19.23;;;;;;;17.49;100.00;101456.50;3600576;39;20043;-63
2021/07/15 08:45:40;;;;;;;28.58;17.10;;;;;;;17.51;100.00;101465.31;3601758;39;20349;-62
2021/07/15 08:48:08;;;;;;;40.08;18.25;;;;;;;17.56;100.00;101466.69;3600451;39;20375;-61
2021/07/15 08:50:37;;;;;;;31.98;17.75;;;;;;;17.69;100.00;101469.78;3602870;39;20050;-62
2021/07/15 08:53:04;;;;;;;31.17;18.10;;;;;;;17.65;100.00;101479.28;3600021;39;20047;-63
2021/07/15 08:58:18;;;;;;;37.35;19.45;;;;;;;17.59;100.00;101488.97;3597531;39;20429;-65
2021/07/15 09:00:45;;;;;;;37.05;18.92;;;;;;;17.59;100.00;101482.69;3596354;39;20096;-63
2021/07/15 09:03:12;;;;;;;36.28;17.95;;;;;;;17.55;100.00;101481.31;3592517;39;20193;-62
2021/07/15 09:05:42;;;;;;;35.65;19.00;;;;;;;17.59;100.00;101488.13;3600792;39;20055;-62
2021/07/15 09:08:09;;;;;;;33.00;18.92;;;;;;;17.63;100.00;101479.47;3606224;39;20309;-63
2021/07/15 09:10:36;;;;;;;41.40;19.25;;;;;;;17.67;100.00;101478.13;3604052;39;20043;-63
2021/07/15 09:13:03;;;;;;;32.67;18.05;;;;;;;17.65;100.00;101473.84;3598942;39;20043;-62
2021/07/15 09:15:30;;;;;;;33.90;17.20;;;;;;;17.64;100.00;101481.19;3606308;39;20048;-63
2021/07/15 09:17:57;;;;;;;24.90;16.55;;;;;;;17.63;100.00;101478.63;3604437;39;20087;-63
2021/07/15 09:20:25;;;;;;;32.17;16.63;;;;;;;17.65;100.00;101482.91;3598782;39;20044;-63
2021/07/15 09:22:59;;;;;;;29.27;17.23;;;;;;;17.68;100.00;101492.56;3598203;39;20032;-61
2021/07/15 09:25:26;;;;;;;30.60;17.05;;;;;;;17.66;100.00;101494.63;3602898;39;20124;-64
2021/07/15 09:27:53;;;;;;;35.42;18.35;;;;;;;17.71;100.00;101502.28;3602721;39;20036;-64
2021/07/15 09:30:20;;;;;;;29.60;17.20;;;;;;;17.76;100.00;101500.75;3600509;39;20134;-64
2021/07/15 09:32:51;;;;;;;35.47;19.05;;;;;;;17.64;100.00;101502.13;3601756;39;20028;-62
2021/07/15 09:35:30;;;;;;;34.30;18.35;;;;;;;17.69;100.00;101499.72;3605344;39;20041;-63
2021/07/15 09:38:09;;;;;;;39.38;19.20;;;;;;;17.66;100.00;101502.78;3604240;39;20047;-63
2021/07/15 09:40:40;;;;;;;43.28;19.48;;;;;;;17.50;100.00;101512.63;3601193;39;20050;-63
2021/07/15 09:43:19;;;;;;;42.30;18.67;;;;;;;17.48;100.00;101506.47;3597582;39;20040;-63
2021/07/15 09:45:47;;;;;;;32.42;19.25;;;;;;;17.56;100.00;101507.53;3605373;39;20039;-63
2021/07/15 09:48:15;;;;;;;32.88;18.67;;;;;;;17.62;100.00;101517.75;3603602;39;20035;-64
2021/07/15 09:50:41;;;;;;;38.53;19.05;;;;;;;17.65;100.00;101509.25;3601391;39;20416;-64
2021/07/15 09:53:16;;;;;;;37.22;18.60;;;;;;;17.62;100.00;101509.56;3600264;39;20050;-63
2021/07/15 09:55:43;;;;;;;32.25;17.00;;;;;;;17.64;100.00;101513.84;3600346;39;20043;-63
2021/07/15 09:58:13;;;;;;;28.73;16.98;;;;;;;17.58;100.00;101513.66;3602518;39;20427;-63
2021/07/15 10:00:44;;;;;;;31.88;18.13;;;;;;;17.58;100.00;101508.19;3604437;39;20304;-62
2021/07/15 10:03:12;;;;;;;34.17;17.20;;;;;;;17.69;100.00;101516.06;3603983;39;20314;-62
2021/07/15 10:05:49;;;;;;;33.38;16.52;;;;;;;17.64;100.00;101516.56;3602176;39;20044;-63
2021/07/15 10:08:24;;;;;;;25.15;15.32;;;;;;;17.68;100.00;101522.50;3605902;39;20038;-62
2021/07/15 10:10:50;;;;;;;24.38;13.60;;;;;;;17.63;100.00;101523.03;3603620;39;20043;-64
2021/07/15 10:13:18;;;;;;;19.00;12.65;;;;;;;17.56;100.00;101523.84;3601578;39;20047;-63
2021/07/15 10:15:47;;;;;;;18.55;11.05;;;;;;;17.48;100.00;101519.25;3602481;39;20074;-62
2021/07/15 10:21:28;;;;;;;23.95;11.55;;;;;;;17.52;100.00;101526.91;3626603;22;20036;-64
2021/07/15 10:23:57;;;;;;;18.63;12.43;;;;;;;17.59;100.00;101531.69;3595194;40;20040;-63
2021/07/15 10:26:24;;;;;;;;;;;;;;;17.61;100.00;101535.13;3590508;40;20318;-63
2021/07/15 10:28:52;;;;;;;22.80;14.32;;;;;;;17.62;100.00;101531.34;3592395;40;20272;-62
2021/07/15 10:31:21;;;;;;;25.63;14.07;;;;;;;17.65;100.00;101531.03;3591926;40;20043;-63
2021/07/15 10:33:50;;;;;;;24.47;14.63;;;;;;;17.72;100.00;101534.78;3590879;40;20699;-63
2021/07/15 10:36:17;;;;;;;23.58;14.50;;;;;;;17.80;100.00;101540.25;3592033;39;20041;-63
2021/07/15 10:38:48;;;;;;;31.10;15.23;;;;;;;17.73;100.00;101544.66;3589117;40;20602;-62
2021/07/15 10:41:16;;;;;;;24.63;16.05;;;;;;;17.63;100.00;101550.25;3589018;40;20068;-62
2021/07/15 10:43:42;;;;;;;33.78;17.90;;;;;;;17.65;100.00;101542.78;3592839;40;20043;-61
2021/07/15 10:46:10;;;;;;;30.55;17.52;;;;;;;17.72;100.00;101547.56;3588288;40;20122;-63
2021/07/15 10:48:37;;;;;;;32.35;16.90;;;;;;;17.76;100.00;101548.94;3591558;40;20054;-62
2021/07/15 10:51:05;;;;;;;32.00;16.42;;;;;;;17.67;100.00;101546.19;3590691;40;20322;-61
2021/07/15 10:53:34;;;;;;;35.55;18.48;;;;;;;17.69;100.00;101546.84;3592084;40;20114;-61
2021/07/15 10:56:02;;;;;;;33.10;18.10;;;;;;;17.71;100.00;101545.84;3588856;40;20040;-61
2021/07/15 10:58:44;;;;;;;34.65;17.75;;;;;;;17.75;100.00;101547.22;3592380;40;20050;-62
2021/07/15 11:01:11;;;;;;;32.88;18.02;;;;;;;17.86;100.00;101545.03;3584254;40;20028;-63
2021/07/15 11:03:38;;;;;;;32.03;16.38;;;;;;;17.94;100.00;101546.09;3588882;40;20072;-63
2021/07/15 11:06:04;;;;;;;31.35;17.35;;;;;;;17.90;100.00;101545.56;3588860;40;20032;-62
2021/07/15 11:09:00;;;;;;;27.17;16.83;;;;;;;17.92;100.00;101553.56;3585180;40;20044;-62
2021/07/15 11:11:35;;;;;;;28.95;16.75;;;;;;;17.88;100.00;101546.75;3583639;39;20350;-62
2021/07/15 11:14:04;;;;;;;30.55;16.08;;;;;;;17.92;100.00;101549.00;3587709;40;20036;-61
2021/07/15 11:16:51;;;;;;;30.13;17.00;;;;;;;17.87;100.00;101556.75;3589930;40;20041;-62
2021/07/15 11:19:55;;;;;;;27.88;15.90;;;;;;;17.89;100.00;101562.03;3591023;40;20136;-61